sensor_id;sensor_type;location;lat;lon;timestamp;P1;durP1;ratioP1;P2;durP2;ratioP2
815;SDS011;25928;51.062;13.752;2022-07-06T00:00:14;6.67;;;6.07;;
815;SDS011;25928;51.062;13.752;2022-07-06T00:05:46;5.40;;;4.43;;
815;SDS011;25928;51.062;13.752;2022-07-06T00:08:12;5.60;;;5.13;;
815;SDS011;25928;51.062;13.752;2022-07-06T00:10:37;5.07;;;4.67;;
815;SDS011;25928;51.062;13.752;2022-07-06T00:13:03;4.67;;;4.13;;
815;SDS011;25928;51.062;13.752;2022-07-06T00:15:28;3.90;;;3.60;;
815;SDS011;25928;51.062;13.752;2022-07-06T00:17:54;5.33;;;4.90;;
815;SDS011;25928;51.062;13.752;2022-07-06T00:20:20;4.50;;;4.10;;
815;SDS011;25928;51.062;13.752;2022-07-06T00:29:21;4.00;;;3.60;;
815;SDS011;25928;51.062;13.752;2022-07-06T00:35:14;5.10;;;4.27;;
815;SDS011;25928;51.062;13.752;2022-07-06T00:40:48;4.23;;;3.80;;
815;SDS011;25928;51.062;13.752;2022-07-06T00:43:14;4.13;;;3.20;;
815;SDS011;25928;51.062;13.752;2022-07-06T00:45:39;3.37;;;3.07;;
815;SDS011;25928;51.062;13.752;2022-07-06T00:51:22;4.17;;;3.77;;
815;SDS011;25928;51.062;13.752;2022-07-06T00:54:31;4.00;;;3.60;;
815;SDS011;25928;51.062;13.752;2022-07-06T01:00:14;3.67;;;3.37;;
815;SDS011;25928;51.062;13.752;2022-07-06T01:02:42;3.47;;;3.17;;
815;SDS011;25928;51.062;13.752;2022-07-06T01:05:09;3.60;;;3.30;;
815;SDS011;25928;51.062;13.752;2022-07-06T01:07:36;4.50;;;3.40;;
815;SDS011;25928;51.062;13.752;2022-07-06T01:10:03;3.77;;;3.47;;
815;SDS011;25928;51.062;13.752;2022-07-06T01:12:30;3.77;;;3.40;;
815;SDS011;25928;51.062;13.752;2022-07-06T01:14:56;5.00;;;3.50;;
815;SDS011;25928;51.062;13.752;2022-07-06T01:17:22;3.60;;;3.30;;
815;SDS011;25928;51.062;13.752;2022-07-06T01:19:48;4.93;;;3.60;;
815;SDS011;25928;51.062;13.752;2022-07-06T01:25:40;4.00;;;3.67;;
815;SDS011;25928;51.062;13.752;2022-07-06T01:31:35;6.03;;;3.23;;
815;SDS011;25928;51.062;13.752;2022-07-06T01:34:10;5.73;;;3.50;;
815;SDS011;25928;51.062;13.752;2022-07-06T01:40:13;4.93;;;3.67;;
815;SDS011;25928;51.062;13.752;2022-07-06T01:46:05;3.10;;;2.80;;
815;SDS011;25928;51.062;13.752;2022-07-06T01:48:31;3.50;;;3.20;;
815;SDS011;25928;51.062;13.752;2022-07-06T01:50:57;4.07;;;3.07;;
815;SDS011;25928;51.062;13.752;2022-07-06T01:53:22;3.73;;;3.00;;
815;SDS011;25928;51.062;13.752;2022-07-06T01:59:14;3.87;;;3.57;;
815;SDS011;25928;51.062;13.752;2022-07-06T02:01:40;3.87;;;3.57;;
815;SDS011;25928;51.062;13.752;2022-07-06T02:04:06;4.03;;;3.70;;
815;SDS011;25928;51.062;13.752;2022-07-06T02:06:31;3.27;;;3.00;;
815;SDS011;25928;51.062;13.752;2022-07-06T02:08:57;4.30;;;4.00;;
815;SDS011;25928;51.062;13.752;2022-07-06T02:11:22;3.60;;;3.30;;
815;SDS011;25928;51.062;13.752;2022-07-06T02:13:48;3.83;;;3.53;;
815;SDS011;25928;51.062;13.752;2022-07-06T02:16:13;4.13;;;3.57;;
815;SDS011;25928;51.062;13.752;2022-07-06T02:18:39;4.33;;;3.93;;
815;SDS011;25928;51.062;13.752;2022-07-06T02:21:05;3.67;;;3.37;;
815;SDS011;25928;51.062;13.752;2022-07-06T02:23:30;3.53;;;3.23;;
815;SDS011;25928;51.062;13.752;2022-07-06T02:25:56;3.80;;;3.50;;
815;SDS011;25928;51.062;13.752;2022-07-06T02:28:22;4.53;;;3.50;;
815;SDS011;25928;51.062;13.752;2022-07-06T02:30:47;4.20;;;3.90;;
815;SDS011;25928;51.062;13.752;2022-07-06T02:33:13;3.70;;;3.40;;
815;SDS011;25928;51.062;13.752;2022-07-06T02:35:38;5.73;;;3.77;;
815;SDS011;25928;51.062;13.752;2022-07-06T02:38:07;2.97;;;2.77;;
815;SDS011;25928;51.062;13.752;2022-07-06T02:40:34;3.33;;;3.13;;
815;SDS011;25928;51.062;13.752;2022-07-06T02:42:59;3.83;;;3.43;;
815;SDS011;25928;51.062;13.752;2022-07-06T02:45:25;3.30;;;3.10;;
815;SDS011;25928;51.062;13.752;2022-07-06T02:47:50;4.73;;;3.37;;
815;SDS011;25928;51.062;13.752;2022-07-06T02:50:16;3.57;;;3.27;;
815;SDS011;25928;51.062;13.752;2022-07-06T02:52:42;4.80;;;3.90;;
815;SDS011;25928;51.062;13.752;2022-07-06T02:55:08;4.63;;;3.23;;
815;SDS011;25928;51.062;13.752;2022-07-06T02:57:33;4.47;;;3.40;;
815;SDS011;25928;51.062;13.752;2022-07-06T02:59:59;4.27;;;3.87;;
815;SDS011;25928;51.062;13.752;2022-07-06T03:02:25;3.73;;;3.40;;
815;SDS011;25928;51.062;13.752;2022-07-06T03:04:50;3.80;;;3.40;;
815;SDS011;25928;51.062;13.752;2022-07-06T03:07:16;3.53;;;3.23;;
815;SDS011;25928;51.062;13.752;2022-07-06T03:09:41;6.73;;;3.70;;
815;SDS011;25928;51.062;13.752;2022-07-06T03:12:07;4.03;;;3.73;;
815;SDS011;25928;51.062;13.752;2022-07-06T03:14:33;4.13;;;3.73;;
815;SDS011;25928;51.062;13.752;2022-07-06T03:16:58;6.13;;;3.40;;
815;SDS011;25928;51.062;13.752;2022-07-06T03:19:24;3.27;;;3.00;;
815;SDS011;25928;51.062;13.752;2022-07-06T03:21:50;3.70;;;3.40;;
815;SDS011;25928;51.062;13.752;2022-07-06T03:24:15;3.67;;;3.37;;
815;SDS011;25928;51.062;13.752;2022-07-06T03:26:41;4.60;;;3.13;;
815;SDS011;25928;51.062;13.752;2022-07-06T03:29:06;3.80;;;3.40;;
815;SDS011;25928;51.062;13.752;2022-07-06T03:31:32;7.00;;;3.93;;
815;SDS011;25928;51.062;13.752;2022-07-06T03:33:57;3.20;;;3.00;;
815;SDS011;25928;51.062;13.752;2022-07-06T03:36:23;5.20;;;3.40;;
815;SDS011;25928;51.062;13.752;2022-07-06T03:38:49;5.10;;;3.53;;
815;SDS011;25928;51.062;13.752;2022-07-06T03:41:14;6.83;;;3.40;;
815;SDS011;25928;51.062;13.752;2022-07-06T03:43:41;3.47;;;3.13;;
815;SDS011;25928;51.062;13.752;2022-07-06T03:46:07;3.30;;;3.00;;
815;SDS011;25928;51.062;13.752;2022-07-06T03:48:33;3.67;;;2.80;;
815;SDS011;25928;51.062;13.752;2022-07-06T03:50:58;6.20;;;3.20;;
815;SDS011;25928;51.062;13.752;2022-07-06T03:53:24;4.03;;;2.90;;
815;SDS011;25928;51.062;13.752;2022-07-06T03:55:49;3.47;;;2.90;;
815;SDS011;25928;51.062;13.752;2022-07-06T03:58:33;3.77;;;3.47;;
815;SDS011;25928;51.062;13.752;2022-07-06T04:00:59;4.30;;;3.73;;
815;SDS011;25928;51.062;13.752;2022-07-06T04:03:25;4.33;;;3.97;;
815;SDS011;25928;51.062;13.752;2022-07-06T04:05:50;4.57;;;4.17;;
815;SDS011;25928;51.062;13.752;2022-07-06T04:08:16;4.27;;;3.97;;
815;SDS011;25928;51.062;13.752;2022-07-06T04:10:42;4.60;;;4.20;;
815;SDS011;25928;51.062;13.752;2022-07-06T04:13:07;5.17;;;4.67;;
815;SDS011;25928;51.062;13.752;2022-07-06T04:15:33;4.50;;;4.10;;
815;SDS011;25928;51.062;13.752;2022-07-06T04:17:58;5.13;;;3.73;;
815;SDS011;25928;51.062;13.752;2022-07-06T04:20:24;5.03;;;4.63;;
815;SDS011;25928;51.062;13.752;2022-07-06T04:22:50;7.17;;;4.70;;
815;SDS011;25928;51.062;13.752;2022-07-06T04:25:17;4.47;;;3.87;;
815;SDS011;25928;51.062;13.752;2022-07-06T04:27:42;4.33;;;3.93;;
815;SDS011;25928;51.062;13.752;2022-07-06T04:30:09;4.40;;;4.00;;
815;SDS011;25928;51.062;13.752;2022-07-06T04:32:35;4.10;;;3.67;;
815;SDS011;25928;51.062;13.752;2022-07-06T04:35:01;5.53;;;4.80;;
815;SDS011;25928;51.062;13.752;2022-07-06T04:37:28;4.90;;;4.50;;
815;SDS011;25928;51.062;13.752;2022-07-06T04:39:54;4.43;;;4.03;;
815;SDS011;25928;51.062;13.752;2022-07-06T04:42:19;4.20;;;3.90;;
815;SDS011;25928;51.062;13.752;2022-07-06T04:44:45;4.53;;;4.03;;
815;SDS011;25928;51.062;13.752;2022-07-06T04:47:11;4.77;;;4.37;;
815;SDS011;25928;51.062;13.752;2022-07-06T04:49:37;4.30;;;3.80;;
815;SDS011;25928;51.062;13.752;2022-07-06T04:52:03;5.27;;;4.87;;
815;SDS011;25928;51.062;13.752;2022-07-06T04:54:29;4.07;;;3.77;;
815;SDS011;25928;51.062;13.752;2022-07-06T04:56:55;8.20;;;4.60;;
815;SDS011;25928;51.062;13.752;2022-07-06T04:59:20;5.10;;;4.70;;
815;SDS011;25928;51.062;13.752;2022-07-06T05:01:46;4.90;;;4.30;;
815;SDS011;25928;51.062;13.752;2022-07-06T05:04:12;6.47;;;4.43;;
815;SDS011;25928;51.062;13.752;2022-07-06T05:06:38;5.23;;;4.80;;
815;SDS011;25928;51.062;13.752;2022-07-06T05:09:04;4.40;;;4.00;;
815;SDS011;25928;51.062;13.752;2022-07-06T05:11:30;4.97;;;4.57;;
815;SDS011;25928;51.062;13.752;2022-07-06T05:13:56;4.07;;;3.77;;
815;SDS011;25928;51.062;13.752;2022-07-06T05:16:22;5.50;;;4.97;;
815;SDS011;25928;51.062;13.752;2022-07-06T05:18:48;4.67;;;4.27;;
815;SDS011;25928;51.062;13.752;2022-07-06T05:21:13;4.40;;;3.70;;
815;SDS011;25928;51.062;13.752;2022-07-06T05:23:40;4.73;;;3.70;;
815;SDS011;25928;51.062;13.752;2022-07-06T05:26:05;7.97;;;3.90;;
815;SDS011;25928;51.062;13.752;2022-07-06T05:28:31;4.40;;;4.10;;
815;SDS011;25928;51.062;13.752;2022-07-06T05:30:57;4.47;;;3.80;;
815;SDS011;25928;51.062;13.752;2022-07-06T05:33:23;4.73;;;4.23;;
815;SDS011;25928;51.062;13.752;2022-07-06T05:35:48;11.80;;;4.10;;
815;SDS011;25928;51.062;13.752;2022-07-06T05:38:14;5.43;;;4.20;;
815;SDS011;25928;51.062;13.752;2022-07-06T05:40:40;4.00;;;3.70;;
815;SDS011;25928;51.062;13.752;2022-07-06T05:43:05;4.20;;;3.80;;
815;SDS011;25928;51.062;13.752;2022-07-06T05:45:31;4.07;;;3.77;;
815;SDS011;25928;51.062;13.752;2022-07-06T05:47:56;7.67;;;3.77;;
815;SDS011;25928;51.062;13.752;2022-07-06T05:50:41;10.27;;;4.63;;
815;SDS011;25928;51.062;13.752;2022-07-06T05:53:07;4.40;;;4.00;;
815;SDS011;25928;51.062;13.752;2022-07-06T05:55:32;4.57;;;3.90;;
815;SDS011;25928;51.062;13.752;2022-07-06T05:57:58;3.40;;;3.10;;
815;SDS011;25928;51.062;13.752;2022-07-06T06:00:24;4.23;;;3.83;;
815;SDS011;25928;51.062;13.752;2022-07-06T06:02:51;4.43;;;4.03;;
815;SDS011;25928;51.062;13.752;2022-07-06T06:05:18;4.83;;;3.50;;
815;SDS011;25928;51.062;13.752;2022-07-06T06:07:44;3.60;;;3.30;;
815;SDS011;25928;51.062;13.752;2022-07-06T06:10:16;3.57;;;3.27;;
815;SDS011;25928;51.062;13.752;2022-07-06T06:12:43;3.70;;;2.90;;
815;SDS011;25928;51.062;13.752;2022-07-06T06:15:09;4.03;;;3.10;;
815;SDS011;25928;51.062;13.752;2022-07-06T06:17:36;3.73;;;3.47;;
815;SDS011;25928;51.062;13.752;2022-07-06T06:20:03;3.30;;;3.10;;
815;SDS011;25928;51.062;13.752;2022-07-06T06:22:31;4.43;;;3.47;;
815;SDS011;25928;51.062;13.752;2022-07-06T06:25:09;3.57;;;3.27;;
815;SDS011;25928;51.062;13.752;2022-07-06T06:27:35;5.90;;;2.90;;
815;SDS011;25928;51.062;13.752;2022-07-06T06:30:01;4.00;;;2.90;;
815;SDS011;25928;51.062;13.752;2022-07-06T06:32:26;4.73;;;2.60;;
815;SDS011;25928;51.062;13.752;2022-07-06T06:34:52;4.10;;;2.97;;
815;SDS011;25928;51.062;13.752;2022-07-06T06:37:17;3.23;;;2.93;;
815;SDS011;25928;51.062;13.752;2022-07-06T06:39:43;6.10;;;2.60;;
815;SDS011;25928;51.062;13.752;2022-07-06T06:42:08;3.37;;;2.70;;
815;SDS011;25928;51.062;13.752;2022-07-06T06:44:34;5.00;;;2.60;;
815;SDS011;25928;51.062;13.752;2022-07-06T06:47:00;3.83;;;2.37;;
815;SDS011;25928;51.062;13.752;2022-07-06T06:49:25;2.60;;;2.40;;
815;SDS011;25928;51.062;13.752;2022-07-06T06:51:51;6.60;;;2.40;;
815;SDS011;25928;51.062;13.752;2022-07-06T06:54:16;5.60;;;2.40;;
815;SDS011;25928;51.062;13.752;2022-07-06T06:56:42;5.03;;;3.43;;
815;SDS011;25928;51.062;13.752;2022-07-06T06:59:08;4.03;;;2.50;;
815;SDS011;25928;51.062;13.752;2022-07-06T07:01:33;4.73;;;2.40;;
815;SDS011;25928;51.062;13.752;2022-07-06T07:03:59;3.93;;;2.40;;
815;SDS011;25928;51.062;13.752;2022-07-06T07:06:24;2.40;;;2.10;;
815;SDS011;25928;51.062;13.752;2022-07-06T07:08:50;4.07;;;2.53;;
815;SDS011;25928;51.062;13.752;2022-07-06T07:11:16;7.03;;;2.37;;
815;SDS011;25928;51.062;13.752;2022-07-06T07:13:41;2.33;;;2.07;;
815;SDS011;25928;51.062;13.752;2022-07-06T07:16:07;4.03;;;2.10;;
815;SDS011;25928;51.062;13.752;2022-07-06T07:18:32;4.17;;;2.03;;
815;SDS011;25928;51.062;13.752;2022-07-06T07:20:58;3.90;;;2.03;;
815;SDS011;25928;51.062;13.752;2022-07-06T07:23:24;5.00;;;2.13;;
815;SDS011;25928;51.062;13.752;2022-07-06T07:25:49;4.27;;;1.90;;
815;SDS011;25928;51.062;13.752;2022-07-06T07:28:15;1.93;;;1.73;;
815;SDS011;25928;51.062;13.752;2022-07-06T07:30:40;2.70;;;1.90;;
815;SDS011;25928;51.062;13.752;2022-07-06T07:33:06;3.10;;;2.33;;
815;SDS011;25928;51.062;13.752;2022-07-06T07:35:32;1.87;;;1.70;;
815;SDS011;25928;51.062;13.752;2022-07-06T07:37:58;3.83;;;1.97;;
815;SDS011;25928;51.062;13.752;2022-07-06T07:40:23;3.30;;;1.77;;
815;SDS011;25928;51.062;13.752;2022-07-06T07:42:49;2.57;;;1.67;;
815;SDS011;25928;51.062;13.752;2022-07-06T07:45:15;2.60;;;2.07;;
815;SDS011;25928;51.062;13.752;2022-07-06T07:47:41;3.63;;;1.43;;
815;SDS011;25928;51.062;13.752;2022-07-06T07:50:07;2.00;;;1.67;;
815;SDS011;25928;51.062;13.752;2022-07-06T07:52:33;3.93;;;2.10;;
815;SDS011;25928;51.062;13.752;2022-07-06T07:54:59;4.43;;;2.57;;
815;SDS011;25928;51.062;13.752;2022-07-06T07:57:24;7.33;;;2.00;;
815;SDS011;25928;51.062;13.752;2022-07-06T07:59:50;3.00;;;1.73;;
815;SDS011;25928;51.062;13.752;2022-07-06T08:02:15;3.10;;;1.80;;
815;SDS011;25928;51.062;13.752;2022-07-06T08:04:41;2.60;;;1.67;;
815;SDS011;25928;51.062;13.752;2022-07-06T08:07:07;4.70;;;1.73;;
815;SDS011;25928;51.062;13.752;2022-07-06T08:09:33;3.60;;;2.07;;
815;SDS011;25928;51.062;13.752;2022-07-06T08:11:59;3.33;;;1.50;;
815;SDS011;25928;51.062;13.752;2022-07-06T08:14:24;1.63;;;1.10;;
815;SDS011;25928;51.062;13.752;2022-07-06T08:16:50;4.17;;;1.40;;
815;SDS011;25928;51.062;13.752;2022-07-06T08:19:16;1.67;;;1.30;;
815;SDS011;25928;51.062;13.752;2022-07-06T08:21:42;2.00;;;1.23;;
815;SDS011;25928;51.062;13.752;2022-07-06T08:24:08;4.63;;;1.67;;
815;SDS011;25928;51.062;13.752;2022-07-06T08:26:34;2.63;;;1.40;;
815;SDS011;25928;51.062;13.752;2022-07-06T08:29:00;3.33;;;1.50;;
815;SDS011;25928;51.062;13.752;2022-07-06T08:31:25;2.77;;;1.60;;
815;SDS011;25928;51.062;13.752;2022-07-06T08:33:55;2.60;;;1.43;;
815;SDS011;25928;51.062;13.752;2022-07-06T08:36:21;4.73;;;1.60;;
815;SDS011;25928;51.062;13.752;2022-07-06T08:38:48;2.53;;;1.40;;
815;SDS011;25928;51.062;13.752;2022-07-06T08:41:15;3.10;;;1.50;;
815;SDS011;25928;51.062;13.752;2022-07-06T08:43:41;3.47;;;1.40;;
815;SDS011;25928;51.062;13.752;2022-07-06T08:46:07;2.70;;;1.77;;
815;SDS011;25928;51.062;13.752;2022-07-06T08:48:37;3.70;;;1.60;;
815;SDS011;25928;51.062;13.752;2022-07-06T08:51:07;1.93;;;1.47;;
815;SDS011;25928;51.062;13.752;2022-07-06T08:53:32;3.90;;;1.70;;
815;SDS011;25928;51.062;13.752;2022-07-06T08:55:59;3.43;;;2.47;;
815;SDS011;25928;51.062;13.752;2022-07-06T08:58:26;3.03;;;1.57;;
815;SDS011;25928;51.062;13.752;2022-07-06T09:00:53;2.03;;;1.40;;
815;SDS011;25928;51.062;13.752;2022-07-06T09:03:19;3.10;;;1.50;;
815;SDS011;25928;51.062;13.752;2022-07-06T09:05:46;2.10;;;1.20;;
815;SDS011;25928;51.062;13.752;2022-07-06T09:08:12;1.83;;;1.47;;
815;SDS011;25928;51.062;13.752;2022-07-06T09:10:38;2.20;;;1.50;;
815;SDS011;25928;51.062;13.752;2022-07-06T09:13:04;2.93;;;1.50;;
815;SDS011;25928;51.062;13.752;2022-07-06T09:15:31;2.50;;;1.40;;
815;SDS011;25928;51.062;13.752;2022-07-06T09:17:58;2.60;;;1.30;;
815;SDS011;25928;51.062;13.752;2022-07-06T09:20:24;4.13;;;1.50;;
815;SDS011;25928;51.062;13.752;2022-07-06T09:22:50;15.17;;;2.27;;
815;SDS011;25928;51.062;13.752;2022-07-06T09:25:15;3.80;;;1.57;;
815;SDS011;25928;51.062;13.752;2022-07-06T09:27:43;1.80;;;1.60;;
815;SDS011;25928;51.062;13.752;2022-07-06T09:30:13;1.67;;;1.57;;
815;SDS011;25928;51.062;13.752;2022-07-06T09:32:43;3.40;;;1.67;;
815;SDS011;25928;51.062;13.752;2022-07-06T09:35:21;2.70;;;1.77;;
815;SDS011;25928;51.062;13.752;2022-07-06T09:38:01;6.50;;;1.83;;
815;SDS011;25928;51.062;13.752;2022-07-06T09:40:30;2.43;;;1.57;;
815;SDS011;25928;51.062;13.752;2022-07-06T09:45:52;2.47;;;1.30;;
815;SDS011;25928;51.062;13.752;2022-07-06T09:48:23;2.50;;;1.40;;
815;SDS011;25928;51.062;13.752;2022-07-06T09:50:54;3.93;;;1.50;;
815;SDS011;25928;51.062;13.752;2022-07-06T09:53:23;2.43;;;1.47;;
815;SDS011;25928;51.062;13.752;2022-07-06T09:55:50;2.90;;;1.60;;
815;SDS011;25928;51.062;13.752;2022-07-06T09:58:17;2.43;;;1.43;;
815;SDS011;25928;51.062;13.752;2022-07-06T10:00:44;4.03;;;1.43;;
815;SDS011;25928;51.062;13.752;2022-07-06T10:03:11;5.40;;;1.83;;
815;SDS011;25928;51.062;13.752;2022-07-06T10:05:39;3.37;;;1.60;;
815;SDS011;25928;51.062;13.752;2022-07-06T10:08:06;4.10;;;1.77;;
815;SDS011;25928;51.062;13.752;2022-07-06T10:10:34;3.30;;;2.00;;
815;SDS011;25928;51.062;13.752;2022-07-06T10:13:01;2.00;;;1.80;;
815;SDS011;25928;51.062;13.752;2022-07-06T10:15:28;3.40;;;2.00;;
815;SDS011;25928;51.062;13.752;2022-07-06T10:18:02;2.93;;;1.80;;
815;SDS011;25928;51.062;13.752;2022-07-06T10:20:33;2.50;;;1.70;;
815;SDS011;25928;51.062;13.752;2022-07-06T10:23:04;2.30;;;1.70;;
815;SDS011;25928;51.062;13.752;2022-07-06T10:25:32;2.70;;;1.67;;
815;SDS011;25928;51.062;13.752;2022-07-06T10:27:59;3.77;;;2.40;;
815;SDS011;25928;51.062;13.752;2022-07-06T10:30:25;2.10;;;1.70;;
815;SDS011;25928;51.062;13.752;2022-07-06T10:32:54;2.43;;;1.70;;
815;SDS011;25928;51.062;13.752;2022-07-06T10:35:21;2.00;;;1.47;;
815;SDS011;25928;51.062;13.752;2022-07-06T10:38:02;2.30;;;1.47;;
815;SDS011;25928;51.062;13.752;2022-07-06T10:40:35;5.57;;;2.23;;
815;SDS011;25928;51.062;13.752;2022-07-06T10:43:20;8.00;;;4.80;;
815;SDS011;25928;51.062;13.752;2022-07-06T10:50:38;4.63;;;1.80;;
815;SDS011;25928;51.062;13.752;2022-07-06T10:53:11;4.60;;;1.90;;
815;SDS011;25928;51.062;13.752;2022-07-06T10:55:45;2.03;;;1.80;;
815;SDS011;25928;51.062;13.752;2022-07-06T10:58:14;2.63;;;1.57;;
815;SDS011;25928;51.062;13.752;2022-07-06T11:06:34;2.73;;;1.90;;
815;SDS011;25928;51.062;13.752;2022-07-06T11:09:07;3.93;;;2.33;;
815;SDS011;25928;51.062;13.752;2022-07-06T11:14:07;2.47;;;1.77;;
815;SDS011;25928;51.062;13.752;2022-07-06T11:19:23;3.03;;;1.80;;
815;SDS011;25928;51.062;13.752;2022-07-06T11:21:51;2.23;;;1.80;;
815;SDS011;25928;51.062;13.752;2022-07-06T11:24:24;4.27;;;1.90;;
815;SDS011;25928;51.062;13.752;2022-07-06T11:26:52;3.37;;;1.83;;
815;SDS011;25928;51.062;13.752;2022-07-06T11:29:19;3.40;;;1.97;;
815;SDS011;25928;51.062;13.752;2022-07-06T11:31:46;1.83;;;1.73;;
815;SDS011;25928;51.062;13.752;2022-07-06T11:34:19;3.10;;;2.00;;
815;SDS011;25928;51.062;13.752;2022-07-06T11:36:47;2.20;;;2.00;;
815;SDS011;25928;51.062;13.752;2022-07-06T11:39:13;5.93;;;2.40;;
815;SDS011;25928;51.062;13.752;2022-07-06T11:41:39;2.90;;;1.70;;
815;SDS011;25928;51.062;13.752;2022-07-06T11:44:06;3.40;;;1.70;;
815;SDS011;25928;51.062;13.752;2022-07-06T11:46:34;1.83;;;1.50;;
815;SDS011;25928;51.062;13.752;2022-07-06T11:51:26;2.80;;;1.53;;
815;SDS011;25928;51.062;13.752;2022-07-06T11:53:57;3.97;;;1.70;;
815;SDS011;25928;51.062;13.752;2022-07-06T11:56:29;4.60;;;1.87;;
815;SDS011;25928;51.062;13.752;2022-07-06T11:58:56;1.50;;;1.40;;
815;SDS011;25928;51.062;13.752;2022-07-06T12:01:24;2.23;;;1.80;;
815;SDS011;25928;51.062;13.752;2022-07-06T12:03:52;2.80;;;1.50;;
815;SDS011;25928;51.062;13.752;2022-07-06T12:06:19;5.03;;;1.90;;
815;SDS011;25928;51.062;13.752;2022-07-06T12:08:47;5.63;;;1.43;;
815;SDS011;25928;51.062;13.752;2022-07-06T12:11:27;2.80;;;1.80;;
815;SDS011;25928;51.062;13.752;2022-07-06T12:13:55;4.20;;;1.60;;
815;SDS011;25928;51.062;13.752;2022-07-06T12:16:28;2.60;;;1.60;;
815;SDS011;25928;51.062;13.752;2022-07-06T12:19:02;2.30;;;1.83;;
815;SDS011;25928;51.062;13.752;2022-07-06T12:21:29;2.50;;;1.33;;
815;SDS011;25928;51.062;13.752;2022-07-06T12:23:56;2.90;;;1.80;;
815;SDS011;25928;51.062;13.752;2022-07-06T12:26:23;4.17;;;2.10;;
815;SDS011;25928;51.062;13.752;2022-07-06T12:31:35;2.90;;;1.70;;
815;SDS011;25928;51.062;13.752;2022-07-06T12:34:11;1.77;;;1.60;;
815;SDS011;25928;51.062;13.752;2022-07-06T12:36:54;2.23;;;1.40;;
815;SDS011;25928;51.062;13.752;2022-07-06T12:39:22;2.03;;;1.40;;
815;SDS011;25928;51.062;13.752;2022-07-06T12:41:51;5.00;;;1.53;;
815;SDS011;25928;51.062;13.752;2022-07-06T12:44:18;2.40;;;1.80;;
815;SDS011;25928;51.062;13.752;2022-07-06T12:46:47;2.83;;;1.97;;
815;SDS011;25928;51.062;13.752;2022-07-06T12:49:30;4.57;;;2.30;;
815;SDS011;25928;51.062;13.752;2022-07-06T12:54:41;3.17;;;1.30;;
815;SDS011;25928;51.062;13.752;2022-07-06T13:02:32;3.43;;;1.50;;
815;SDS011;25928;51.062;13.752;2022-07-06T13:07:30;3.23;;;1.40;;
815;SDS011;25928;51.062;13.752;2022-07-06T13:09:57;2.10;;;1.47;;
815;SDS011;25928;51.062;13.752;2022-07-06T13:12:23;3.00;;;1.43;;
815;SDS011;25928;51.062;13.752;2022-07-06T13:14:50;2.80;;;1.50;;
815;SDS011;25928;51.062;13.752;2022-07-06T13:17:16;4.03;;;1.70;;
815;SDS011;25928;51.062;13.752;2022-07-06T13:19:42;3.07;;;1.80;;
815;SDS011;25928;51.062;13.752;2022-07-06T13:22:08;3.37;;;1.90;;
815;SDS011;25928;51.062;13.752;2022-07-06T13:24:33;1.50;;;1.30;;
815;SDS011;25928;51.062;13.752;2022-07-06T13:26:59;2.27;;;1.60;;
815;SDS011;25928;51.062;13.752;2022-07-06T13:29:26;4.57;;;1.70;;
815;SDS011;25928;51.062;13.752;2022-07-06T13:31:51;8.03;;;1.67;;
815;SDS011;25928;51.062;13.752;2022-07-06T13:34:17;5.60;;;1.60;;
815;SDS011;25928;51.062;13.752;2022-07-06T13:36:43;2.73;;;1.60;;
815;SDS011;25928;51.062;13.752;2022-07-06T13:39:09;1.80;;;1.47;;
815;SDS011;25928;51.062;13.752;2022-07-06T13:41:35;1.53;;;1.37;;
815;SDS011;25928;51.062;13.752;2022-07-06T13:44:00;4.77;;;1.97;;
815;SDS011;25928;51.062;13.752;2022-07-06T13:46:27;2.83;;;1.40;;
815;SDS011;25928;51.062;13.752;2022-07-06T13:48:54;5.07;;;1.97;;
815;SDS011;25928;51.062;13.752;2022-07-06T13:51:21;4.40;;;1.90;;
815;SDS011;25928;51.062;13.752;2022-07-06T13:53:47;3.30;;;1.23;;
815;SDS011;25928;51.062;13.752;2022-07-06T13:56:12;1.90;;;1.60;;
815;SDS011;25928;51.062;13.752;2022-07-06T13:58:38;3.73;;;1.70;;
815;SDS011;25928;51.062;13.752;2022-07-06T14:01:07;1.50;;;1.40;;
815;SDS011;25928;51.062;13.752;2022-07-06T14:03:32;2.40;;;1.70;;
815;SDS011;25928;51.062;13.752;2022-07-06T14:05:58;2.90;;;1.73;;
815;SDS011;25928;51.062;13.752;2022-07-06T14:08:25;2.67;;;1.47;;
815;SDS011;25928;51.062;13.752;2022-07-06T14:10:52;2.90;;;1.10;;
815;SDS011;25928;51.062;13.752;2022-07-06T14:13:18;3.23;;;1.23;;
815;SDS011;25928;51.062;13.752;2022-07-06T14:15:44;2.50;;;1.43;;
815;SDS011;25928;51.062;13.752;2022-07-06T14:18:10;3.57;;;1.70;;
815;SDS011;25928;51.062;13.752;2022-07-06T14:20:36;3.33;;;1.70;;
815;SDS011;25928;51.062;13.752;2022-07-06T14:23:02;3.23;;;1.90;;
815;SDS011;25928;51.062;13.752;2022-07-06T14:25:28;3.57;;;1.20;;
815;SDS011;25928;51.062;13.752;2022-07-06T14:27:53;4.87;;;1.50;;
815;SDS011;25928;51.062;13.752;2022-07-06T14:30:19;3.87;;;1.53;;
815;SDS011;25928;51.062;13.752;2022-07-06T14:32:45;2.67;;;1.40;;
815;SDS011;25928;51.062;13.752;2022-07-06T14:35:11;1.70;;;1.60;;
815;SDS011;25928;51.062;13.752;2022-07-06T14:37:37;1.47;;;1.23;;
815;SDS011;25928;51.062;13.752;2022-07-06T14:40:02;2.10;;;1.03;;
815;SDS011;25928;51.062;13.752;2022-07-06T14:42:29;1.53;;;1.43;;
815;SDS011;25928;51.062;13.752;2022-07-06T14:44:54;3.70;;;1.33;;
815;SDS011;25928;51.062;13.752;2022-07-06T14:47:20;3.97;;;1.27;;
815;SDS011;25928;51.062;13.752;2022-07-06T14:49:46;2.73;;;1.20;;
815;SDS011;25928;51.062;13.752;2022-07-06T14:52:12;4.67;;;2.17;;
815;SDS011;25928;51.062;13.752;2022-07-06T14:54:37;2.03;;;1.67;;
815;SDS011;25928;51.062;13.752;2022-07-06T14:57:03;1.97;;;1.60;;
815;SDS011;25928;51.062;13.752;2022-07-06T14:59:30;2.27;;;1.50;;
815;SDS011;25928;51.062;13.752;2022-07-06T15:01:56;2.50;;;1.13;;
815;SDS011;25928;51.062;13.752;2022-07-06T15:04:21;4.23;;;1.40;;
815;SDS011;25928;51.062;13.752;2022-07-06T15:06:48;3.60;;;1.40;;
815;SDS011;25928;51.062;13.752;2022-07-06T15:09:14;2.97;;;1.60;;
815;SDS011;25928;51.062;13.752;2022-07-06T15:11:39;2.60;;;1.43;;
815;SDS011;25928;51.062;13.752;2022-07-06T15:14:05;2.63;;;1.00;;
815;SDS011;25928;51.062;13.752;2022-07-06T15:16:31;1.90;;;1.10;;
815;SDS011;25928;51.062;13.752;2022-07-06T15:18:56;2.00;;;1.20;;
815;SDS011;25928;51.062;13.752;2022-07-06T15:21:23;1.73;;;1.20;;
815;SDS011;25928;51.062;13.752;2022-07-06T15:23:48;2.53;;;1.20;;
815;SDS011;25928;51.062;13.752;2022-07-06T15:26:14;1.23;;;1.13;;
815;SDS011;25928;51.062;13.752;2022-07-06T15:28:40;1.03;;;0.90;;
815;SDS011;25928;51.062;13.752;2022-07-06T15:31:05;1.73;;;0.90;;
815;SDS011;25928;51.062;13.752;2022-07-06T15:33:31;2.50;;;1.20;;
815;SDS011;25928;51.062;13.752;2022-07-06T15:35:57;2.10;;;1.40;;
815;SDS011;25928;51.062;13.752;2022-07-06T15:38:23;5.07;;;1.40;;
815;SDS011;25928;51.062;13.752;2022-07-06T15:40:49;2.50;;;1.00;;
815;SDS011;25928;51.062;13.752;2022-07-06T15:43:22;2.03;;;0.90;;
815;SDS011;25928;51.062;13.752;2022-07-06T15:45:49;2.00;;;1.43;;
815;SDS011;25928;51.062;13.752;2022-07-06T15:48:20;1.57;;;1.07;;
815;SDS011;25928;51.062;13.752;2022-07-06T15:50:46;3.60;;;1.10;;
815;SDS011;25928;51.062;13.752;2022-07-06T15:53:11;3.50;;;1.27;;
815;SDS011;25928;51.062;13.752;2022-07-06T15:55:37;2.13;;;0.93;;
815;SDS011;25928;51.062;13.752;2022-07-06T15:58:03;2.67;;;1.40;;
815;SDS011;25928;51.062;13.752;2022-07-06T16:00:28;3.37;;;1.37;;
815;SDS011;25928;51.062;13.752;2022-07-06T16:02:54;2.90;;;1.33;;
815;SDS011;25928;51.062;13.752;2022-07-06T16:05:20;1.80;;;1.20;;
815;SDS011;25928;51.062;13.752;2022-07-06T16:07:46;4.00;;;1.10;;
815;SDS011;25928;51.062;13.752;2022-07-06T16:10:12;3.27;;;1.93;;
815;SDS011;25928;51.062;13.752;2022-07-06T16:12:38;2.00;;;1.47;;